BAW87K LHBP-LWSK
Flight info
| Callsign | BAW87K |
|---|---|
| Flight time | 1h 9m |
| Altitude | 37000 |
| Route | FAHAZ2L FAHAZ DCT KEROP DCT REDVA UL616 KOGAT KOGAT1A |
| Aircraft | A319/M-SDE3FGIJ1KRWXY/LB1 |
Departure
| Time | 2026-05-08 16:25 |
|---|---|
| Airport | Budapest Liszt Ferenc International Airport (LHBP) |
Arrival
| Time | 2026-05-08 17:34 |
|---|---|
| Airport | Skopje International Airport (LWSK) |
| Time | Latitude | Longitude | Altitude | Speed | Heading |
|---|---|---|---|---|---|
| 2026-05-08 15:34 | 47.43652 | 19.25954 | 476 ft | 0 kts | 312° |
| 2026-05-08 16:09 | 47.43654 | 19.25951 | 485 ft | 2 kts | 312° |
| 2026-05-08 16:10 | 47.43664 | 19.25934 | 480 ft | 0 kts | 131° |
| 2026-05-08 16:10 | 47.43652 | 19.25954 | 485 ft | 0 kts | 312° |
| 2026-05-08 16:13 | 47.43633 | 19.25984 | 476 ft | 4 kts | 328° |
| 2026-05-08 16:13 | 47.43619 | 19.25991 | 482 ft | 3 kts | 28° |
| 2026-05-08 16:14 | 47.43598 | 19.25973 | 480 ft | 4 kts | 41° |
| 2026-05-08 16:14 | 47.43586 | 19.25956 | 475 ft | 0 kts | 46° |
| 2026-05-08 16:17 | 47.43588 | 19.25959 | 475 ft | 1 kts | 46° |
| 2026-05-08 16:17 | 47.43602 | 19.25980 | 481 ft | 5 kts | 45° |
| 2026-05-08 16:18 | 47.43634 | 19.26026 | 477 ft | 8 kts | 44° |
| 2026-05-08 16:18 | 47.43689 | 19.26041 | 482 ft | 9 kts | 332° |
| 2026-05-08 16:18 | 47.43731 | 19.25978 | 485 ft | 8 kts | 312° |
| 2026-05-08 16:18 | 47.43731 | 19.25905 | 484 ft | 10 kts | 224° |
| 2026-05-08 16:19 | 47.43661 | 19.25816 | 483 ft | 16 kts | 221° |
| 2026-05-08 16:19 | 47.43572 | 19.25697 | 479 ft | 18 kts | 224° |
| 2026-05-08 16:19 | 47.43476 | 19.25562 | 476 ft | 20 kts | 224° |
| 2026-05-08 16:19 | 47.43376 | 19.25434 | 472 ft | 14 kts | 221° |
| 2026-05-08 16:20 | 47.43302 | 19.25334 | 467 ft | 12 kts | 224° |
| 2026-05-08 16:20 | 47.43226 | 19.25227 | 460 ft | 19 kts | 224° |
| 2026-05-08 16:20 | 47.43159 | 19.25139 | 458 ft | 5 kts | 222° |
| 2026-05-08 16:20 | 47.43155 | 19.25134 | 457 ft | 0 kts | 222° |
| 2026-05-08 16:23 | 47.43153 | 19.25132 | 458 ft | 1 kts | 222° |
| 2026-05-08 16:23 | 47.43137 | 19.25110 | 457 ft | 6 kts | 223° |
| 2026-05-08 16:23 | 47.43092 | 19.25048 | 457 ft | 12 kts | 223° |
| 2026-05-08 16:24 | 47.43103 | 19.24932 | 458 ft | 14 kts | 311° |
| 2026-05-08 16:24 | 47.43186 | 19.24798 | 457 ft | 24 kts | 313° |
| 2026-05-08 16:24 | 47.43434 | 19.24396 | 454 ft | 86 kts | 312° |
| 2026-05-08 16:24 | 47.43955 | 19.23549 | 455 ft | 139 kts | 313° |
| 2026-05-08 16:25 | 47.44647 | 19.22436 | 918 ft | 141 kts | 312° |
| 2026-05-08 16:25 | 47.45318 | 19.21368 | 1426 ft | 143 kts | 312° |
| 2026-05-08 16:25 | 47.46007 | 19.20250 | 1852 ft | 155 kts | 311° |
| 2026-05-08 16:25 | 47.46786 | 19.18985 | 2095 ft | 178 kts | 311° |
| 2026-05-08 16:26 | 47.47675 | 19.17543 | 2402 ft | 202 kts | 311° |
| 2026-05-08 16:26 | 47.48568 | 19.15855 | 2775 ft | 223 kts | 300° |
| 2026-05-08 16:26 | 47.49150 | 19.13589 | 3223 ft | 249 kts | 281° |
| 2026-05-08 16:26 | 47.49205 | 19.10977 | 4034 ft | 260 kts | 262° |
| 2026-05-08 16:27 | 47.48678 | 19.08409 | 5043 ft | 264 kts | 243° |
| 2026-05-08 16:27 | 47.47595 | 19.06217 | 6062 ft | 268 kts | 224° |
| 2026-05-08 16:27 | 47.46036 | 19.04676 | 7050 ft | 272 kts | 203° |
| 2026-05-08 16:27 | 47.44186 | 19.04029 | 7997 ft | 277 kts | 183° |
| 2026-05-08 16:28 | 47.42247 | 19.04002 | 8927 ft | 280 kts | 185° |
| 2026-05-08 16:28 | 47.40324 | 19.03493 | 9850 ft | 283 kts | 198° |
| 2026-05-08 16:28 | 47.38513 | 19.02344 | 10651 ft | 286 kts | 211° |
| 2026-05-08 16:28 | 47.36770 | 19.00779 | 11115 ft | 305 kts | 210° |
| 2026-05-08 16:29 | 47.34814 | 18.99300 | 11399 ft | 326 kts | 206° |
| 2026-05-08 16:29 | 47.32728 | 18.97890 | 12050 ft | 333 kts | 205° |
| 2026-05-08 16:29 | 47.30601 | 18.96531 | 12804 ft | 336 kts | 204° |
| 2026-05-08 16:29 | 47.28441 | 18.95158 | 13583 ft | 339 kts | 204° |
| 2026-05-08 16:30 | 47.26262 | 18.93747 | 14284 ft | 342 kts | 205° |
| 2026-05-08 16:30 | 47.24082 | 18.92303 | 14964 ft | 345 kts | 205° |
| 2026-05-08 16:30 | 47.21889 | 18.90824 | 15621 ft | 348 kts | 206° |
| 2026-05-08 16:30 | 47.19679 | 18.89316 | 16291 ft | 351 kts | 206° |
| 2026-05-08 16:31 | 47.17449 | 18.87793 | 16953 ft | 355 kts | 206° |
| 2026-05-08 16:31 | 47.15248 | 18.86298 | 17595 ft | 358 kts | 205° |
| 2026-05-08 16:31 | 47.12824 | 18.85218 | 18242 ft | 364 kts | 191° |
| 2026-05-08 16:31 | 47.10294 | 18.85043 | 18808 ft | 371 kts | 178° |
| 2026-05-08 16:32 | 47.07729 | 18.85832 | 19371 ft | 379 kts | 163° |
| 2026-05-08 16:32 | 47.05357 | 18.87574 | 19937 ft | 387 kts | 149° |
| 2026-05-08 16:32 | 47.03158 | 18.89895 | 20506 ft | 391 kts | 147° |
| 2026-05-08 16:32 | 47.00945 | 18.92236 | 21071 ft | 394 kts | 147° |
| 2026-05-08 16:33 | 46.98704 | 18.94588 | 21621 ft | 397 kts | 147° |
| 2026-05-08 16:33 | 46.96460 | 18.96930 | 22157 ft | 401 kts | 147° |
| 2026-05-08 16:33 | 46.94181 | 18.99302 | 22675 ft | 404 kts | 147° |
| 2026-05-08 16:33 | 46.91885 | 19.01695 | 23195 ft | 407 kts | 147° |
| 2026-05-08 16:34 | 46.89571 | 19.04109 | 23686 ft | 410 kts | 147° |
| 2026-05-08 16:34 | 46.87227 | 19.06498 | 24117 ft | 412 kts | 149° |
| 2026-05-08 16:34 | 46.84833 | 19.08795 | 24550 ft | 413 kts | 150° |
| 2026-05-08 16:34 | 46.82386 | 19.11049 | 24980 ft | 415 kts | 152° |
| 2026-05-08 16:35 | 46.79956 | 19.13253 | 25401 ft | 417 kts | 152° |
| 2026-05-08 16:35 | 46.77483 | 19.15496 | 25826 ft | 420 kts | 152° |
| 2026-05-08 16:35 | 46.75004 | 19.17762 | 26241 ft | 422 kts | 152° |
| 2026-05-08 16:35 | 46.72515 | 19.20057 | 26662 ft | 424 kts | 152° |
| 2026-05-08 16:36 | 46.70012 | 19.22378 | 27065 ft | 427 kts | 152° |
| 2026-05-08 16:36 | 46.67501 | 19.24709 | 27464 ft | 429 kts | 152° |
| 2026-05-08 16:36 | 46.64973 | 19.27055 | 27859 ft | 432 kts | 152° |
| 2026-05-08 16:36 | 46.62438 | 19.29401 | 28240 ft | 434 kts | 152° |
| 2026-05-08 16:37 | 46.59874 | 19.31772 | 28629 ft | 437 kts | 152° |
| 2026-05-08 16:37 | 46.57299 | 19.34148 | 29005 ft | 440 kts | 152° |
| 2026-05-08 16:37 | 46.54705 | 19.36537 | 29366 ft | 442 kts | 152° |
| 2026-05-08 16:37 | 46.52124 | 19.38910 | 29721 ft | 445 kts | 153° |
| 2026-05-08 16:38 | 46.49504 | 19.41315 | 30067 ft | 447 kts | 153° |
| 2026-05-08 16:38 | 46.46869 | 19.43734 | 30362 ft | 450 kts | 153° |
| 2026-05-08 16:38 | 46.44214 | 19.46168 | 30656 ft | 452 kts | 153° |
| 2026-05-08 16:38 | 46.41559 | 19.48598 | 30957 ft | 453 kts | 153° |
| 2026-05-08 16:39 | 46.38878 | 19.51053 | 31259 ft | 455 kts | 153° |
| 2026-05-08 16:39 | 46.36200 | 19.53510 | 31634 ft | 454 kts | 152° |
| 2026-05-08 16:39 | 46.33540 | 19.55952 | 32080 ft | 453 kts | 153° |
| 2026-05-08 16:39 | 46.30876 | 19.58386 | 32520 ft | 451 kts | 153° |
| 2026-05-08 16:40 | 46.28231 | 19.60791 | 32964 ft | 449 kts | 153° |
| 2026-05-08 16:40 | 46.25628 | 19.63151 | 33408 ft | 448 kts | 153° |
| 2026-05-08 16:40 | 46.22994 | 19.65538 | 33865 ft | 446 kts | 153° |
| 2026-05-08 16:40 | 46.20353 | 19.67860 | 34261 ft | 442 kts | 157° |
| 2026-05-08 16:41 | 46.17558 | 19.69662 | 34615 ft | 435 kts | 166° |
| 2026-05-08 16:41 | 46.14651 | 19.70804 | 34952 ft | 430 kts | 173° |
| 2026-05-08 16:41 | 46.11714 | 19.71659 | 35266 ft | 431 kts | 173° |
| 2026-05-08 16:42 | 46.05847 | 19.73378 | 35876 ft | 431 kts | 173° |
| 2026-05-08 16:42 | 46.02901 | 19.74242 | 36157 ft | 432 kts | 173° |
| 2026-05-08 16:42 | 45.99946 | 19.75110 | 36462 ft | 432 kts | 173° |
| 2026-05-08 16:42 | 45.97001 | 19.75982 | 36746 ft | 432 kts | 173° |
| 2026-05-08 16:43 | 45.94053 | 19.76856 | 36967 ft | 433 kts | 173° |
| 2026-05-08 16:43 | 45.88189 | 19.78591 | 37013 ft | 432 kts | 173° |
| 2026-05-08 16:44 | 45.82304 | 19.80316 | 37015 ft | 432 kts | 173° |
| 2026-05-08 16:44 | 45.76402 | 19.82039 | 37014 ft | 432 kts | 173° |
| 2026-05-08 16:45 | 45.70500 | 19.83752 | 37011 ft | 432 kts | 173° |
| 2026-05-08 16:45 | 45.64632 | 19.85447 | 37011 ft | 433 kts | 173° |
| 2026-05-08 16:46 | 45.58731 | 19.87162 | 37007 ft | 433 kts | 173° |
| 2026-05-08 16:46 | 45.52829 | 19.88879 | 37007 ft | 433 kts | 173° |
| 2026-05-08 16:47 | 45.46924 | 19.90591 | 37001 ft | 433 kts | 173° |
| 2026-05-08 16:47 | 45.40995 | 19.92301 | 37000 ft | 434 kts | 173° |
| 2026-05-08 16:48 | 45.35128 | 19.93993 | 36997 ft | 434 kts | 173° |
| 2026-05-08 16:48 | 45.29189 | 19.95699 | 36991 ft | 434 kts | 173° |
| 2026-05-08 16:49 | 45.23262 | 19.97393 | 36992 ft | 434 kts | 173° |
| 2026-05-08 16:49 | 45.17327 | 19.99095 | 36987 ft | 435 kts | 173° |
| 2026-05-08 16:50 | 45.12403 | 20.00504 | 36985 ft | 435 kts | 173° |
| 2026-05-08 16:50 | 45.05450 | 20.02478 | 36981 ft | 436 kts | 173° |
| 2026-05-08 16:51 | 44.99509 | 20.04169 | 36980 ft | 436 kts | 173° |
| 2026-05-08 16:51 | 44.93545 | 20.05864 | 36982 ft | 436 kts | 173° |
| 2026-05-08 16:52 | 44.87589 | 20.07545 | 36980 ft | 437 kts | 173° |
| 2026-05-08 16:52 | 44.81642 | 20.09223 | 36979 ft | 437 kts | 173° |
| 2026-05-08 16:53 | 44.72701 | 20.11752 | 36977 ft | 438 kts | 173° |
| 2026-05-08 16:53 | 44.66717 | 20.13440 | 36978 ft | 439 kts | 173° |
| 2026-05-08 16:54 | 44.60730 | 20.15119 | 36980 ft | 439 kts | 173° |
| 2026-05-08 16:54 | 44.54722 | 20.16794 | 36983 ft | 440 kts | 173° |
| 2026-05-08 16:55 | 44.48717 | 20.18467 | 36984 ft | 440 kts | 173° |
| 2026-05-08 16:55 | 44.42757 | 20.20129 | 36986 ft | 440 kts | 173° |
| 2026-05-08 16:56 | 44.36733 | 20.21800 | 36982 ft | 441 kts | 173° |
| 2026-05-08 16:56 | 44.30706 | 20.23474 | 36980 ft | 441 kts | 173° |
| 2026-05-08 16:57 | 44.24678 | 20.25146 | 36984 ft | 442 kts | 173° |
| 2026-05-08 16:57 | 44.18632 | 20.26817 | 36987 ft | 442 kts | 173° |
| 2026-05-08 16:58 | 44.12590 | 20.28494 | 36987 ft | 443 kts | 173° |
| 2026-05-08 16:58 | 44.06544 | 20.30154 | 36985 ft | 443 kts | 173° |
| 2026-05-08 16:59 | 44.00491 | 20.31809 | 36992 ft | 443 kts | 173° |
| 2026-05-08 16:59 | 43.94430 | 20.33472 | 37000 ft | 443 kts | 174° |
| 2026-05-08 17:00 | 43.88428 | 20.35117 | 37007 ft | 444 kts | 174° |
| 2026-05-08 17:00 | 43.82359 | 20.36765 | 37005 ft | 444 kts | 174° |
| 2026-05-08 17:01 | 43.76279 | 20.38413 | 37007 ft | 444 kts | 174° |
| 2026-05-08 17:01 | 43.70212 | 20.40065 | 37006 ft | 444 kts | 174° |
| 2026-05-08 17:02 | 43.65175 | 20.41441 | 37006 ft | 444 kts | 174° |
| 2026-05-08 17:02 | 43.59098 | 20.43090 | 37007 ft | 445 kts | 174° |
| 2026-05-08 17:03 | 43.53004 | 20.44737 | 37009 ft | 445 kts | 174° |
| 2026-05-08 17:03 | 43.46911 | 20.46378 | 37007 ft | 445 kts | 174° |
| 2026-05-08 17:04 | 43.40820 | 20.48009 | 37012 ft | 445 kts | 174° |
| 2026-05-08 17:04 | 43.34738 | 20.49645 | 37021 ft | 446 kts | 174° |
| 2026-05-08 17:05 | 43.28670 | 20.51266 | 37027 ft | 446 kts | 174° |
| 2026-05-08 17:05 | 43.22581 | 20.52893 | 37030 ft | 447 kts | 174° |
| 2026-05-08 17:06 | 43.16456 | 20.54530 | 37024 ft | 447 kts | 174° |
| 2026-05-08 17:06 | 43.10349 | 20.56162 | 37026 ft | 448 kts | 174° |
| 2026-05-08 17:07 | 43.04227 | 20.57792 | 37028 ft | 448 kts | 174° |
| 2026-05-08 17:07 | 42.98215 | 20.60201 | 37024 ft | 455 kts | 163° |
| 2026-05-08 17:08 | 42.92292 | 20.63347 | 37025 ft | 455 kts | 164° |
| 2026-05-08 17:08 | 42.86369 | 20.66473 | 37031 ft | 456 kts | 164° |
| 2026-05-08 17:09 | 42.80425 | 20.69603 | 36233 ft | 464 kts | 164° |
| 2026-05-08 17:09 | 42.77384 | 20.71195 | 35471 ft | 469 kts | 163° |
| 2026-05-08 17:09 | 42.74321 | 20.72799 | 34610 ft | 475 kts | 163° |
| 2026-05-08 17:10 | 42.71216 | 20.74425 | 33652 ft | 481 kts | 163° |
| 2026-05-08 17:10 | 42.68080 | 20.76067 | 32685 ft | 485 kts | 163° |
| 2026-05-08 17:10 | 42.64929 | 20.77718 | 31969 ft | 484 kts | 162° |
| 2026-05-08 17:10 | 42.61803 | 20.79362 | 31438 ft | 478 kts | 162° |
| 2026-05-08 17:11 | 42.58756 | 20.80962 | 30830 ft | 475 kts | 162° |
| 2026-05-08 17:11 | 42.55687 | 20.82567 | 30236 ft | 471 kts | 162° |
| 2026-05-08 17:11 | 42.52641 | 20.84151 | 29573 ft | 467 kts | 162° |
| 2026-05-08 17:11 | 42.49625 | 20.85714 | 28995 ft | 462 kts | 162° |
| 2026-05-08 17:12 | 42.46637 | 20.87265 | 28389 ft | 457 kts | 162° |
| 2026-05-08 17:12 | 42.43684 | 20.88801 | 27815 ft | 452 kts | 162° |
| 2026-05-08 17:12 | 42.40768 | 20.90320 | 27241 ft | 447 kts | 162° |
| 2026-05-08 17:12 | 42.37883 | 20.91823 | 26675 ft | 443 kts | 162° |
| 2026-05-08 17:13 | 42.35019 | 20.93307 | 26118 ft | 438 kts | 162° |
| 2026-05-08 17:13 | 42.32191 | 20.94765 | 25577 ft | 434 kts | 162° |
| 2026-05-08 17:13 | 42.29380 | 20.96213 | 25055 ft | 429 kts | 162° |
| 2026-05-08 17:13 | 42.26603 | 20.97643 | 24533 ft | 425 kts | 162° |
| 2026-05-08 17:14 | 42.23854 | 20.99059 | 24051 ft | 420 kts | 162° |
| 2026-05-08 17:14 | 42.21137 | 21.00458 | 23553 ft | 416 kts | 162° |
| 2026-05-08 17:14 | 42.18463 | 21.01837 | 23044 ft | 411 kts | 162° |
| 2026-05-08 17:14 | 42.15819 | 21.03314 | 22589 ft | 408 kts | 156° |
| 2026-05-08 17:15 | 42.13426 | 21.05349 | 22130 ft | 406 kts | 144° |
| 2026-05-08 17:15 | 42.11381 | 21.07942 | 21684 ft | 404 kts | 133° |
| 2026-05-08 17:15 | 42.09736 | 21.11016 | 21219 ft | 403 kts | 122° |
| 2026-05-08 17:15 | 42.08547 | 21.14406 | 20749 ft | 401 kts | 113° |
| 2026-05-08 17:16 | 42.07498 | 21.17876 | 20263 ft | 397 kts | 114° |
| 2026-05-08 17:16 | 42.06451 | 21.21298 | 19771 ft | 394 kts | 114° |
| 2026-05-08 17:16 | 42.05416 | 21.24652 | 19283 ft | 389 kts | 114° |
| 2026-05-08 17:16 | 42.04378 | 21.28002 | 18782 ft | 387 kts | 114° |
| 2026-05-08 17:17 | 42.03341 | 21.31330 | 18293 ft | 384 kts | 114° |
| 2026-05-08 17:17 | 42.02308 | 21.34606 | 17875 ft | 378 kts | 114° |
| 2026-05-08 17:17 | 42.01299 | 21.37810 | 17734 ft | 364 kts | 114° |
| 2026-05-08 17:17 | 42.00330 | 21.40892 | 17598 ft | 352 kts | 114° |
| 2026-05-08 17:18 | 41.99396 | 21.43875 | 17344 ft | 344 kts | 115° |
| 2026-05-08 17:18 | 41.98472 | 21.46829 | 16975 ft | 341 kts | 114° |
| 2026-05-08 17:18 | 41.97555 | 21.49757 | 16576 ft | 339 kts | 114° |
| 2026-05-08 17:18 | 41.96646 | 21.52650 | 16184 ft | 337 kts | 114° |
| 2026-05-08 17:19 | 41.95732 | 21.55554 | 15772 ft | 335 kts | 114° |
| 2026-05-08 17:19 | 41.94828 | 21.58424 | 15280 ft | 333 kts | 114° |
| 2026-05-08 17:19 | 41.93927 | 21.61284 | 14806 ft | 331 kts | 114° |
| 2026-05-08 17:19 | 41.93029 | 21.64128 | 14342 ft | 329 kts | 115° |
| 2026-05-08 17:20 | 41.92142 | 21.66945 | 13896 ft | 328 kts | 114° |
| 2026-05-08 17:20 | 41.91258 | 21.69757 | 13403 ft | 325 kts | 115° |
| 2026-05-08 17:20 | 41.90384 | 21.72545 | 12931 ft | 323 kts | 115° |
| 2026-05-08 17:20 | 41.89511 | 21.75327 | 12475 ft | 320 kts | 115° |
| 2026-05-08 17:21 | 41.88657 | 21.78067 | 12027 ft | 318 kts | 115° |
| 2026-05-08 17:21 | 41.87809 | 21.80807 | 11573 ft | 316 kts | 115° |
| 2026-05-08 17:21 | 41.86949 | 21.83441 | 11127 ft | 311 kts | 122° |
| 2026-05-08 17:21 | 41.85552 | 21.85569 | 10700 ft | 300 kts | 149° |
| 2026-05-08 17:22 | 41.83688 | 21.86640 | 10268 ft | 288 kts | 174° |
| 2026-05-08 17:22 | 41.81705 | 21.86923 | 9802 ft | 285 kts | 180° |
| 2026-05-08 17:22 | 41.79741 | 21.87095 | 9321 ft | 282 kts | 180° |
| 2026-05-08 17:22 | 41.77779 | 21.87246 | 8860 ft | 280 kts | 180° |
| 2026-05-08 17:23 | 41.75851 | 21.87379 | 8402 ft | 278 kts | 180° |
| 2026-05-08 17:23 | 41.73919 | 21.87499 | 7953 ft | 276 kts | 180° |
| 2026-05-08 17:23 | 41.71993 | 21.87605 | 7517 ft | 274 kts | 180° |
| 2026-05-08 17:23 | 41.70130 | 21.87711 | 7365 ft | 262 kts | 178° |
| 2026-05-08 17:24 | 41.68356 | 21.87973 | 7249 ft | 250 kts | 176° |
| 2026-05-08 17:24 | 41.66668 | 21.88258 | 7075 ft | 242 kts | 175° |
| 2026-05-08 17:24 | 41.65005 | 21.88537 | 6764 ft | 239 kts | 175° |
| 2026-05-08 17:24 | 41.63353 | 21.88807 | 6433 ft | 237 kts | 175° |
| 2026-05-08 17:25 | 41.61742 | 21.89063 | 6068 ft | 236 kts | 175° |
| 2026-05-08 17:25 | 41.60118 | 21.89303 | 5688 ft | 233 kts | 179° |
| 2026-05-08 17:25 | 41.58551 | 21.88938 | 5289 ft | 228 kts | 205° |
| 2026-05-08 17:25 | 41.57302 | 21.87697 | 4885 ft | 225 kts | 231° |
| 2026-05-08 17:26 | 41.56626 | 21.85833 | 4769 ft | 228 kts | 256° |
| 2026-05-08 17:26 | 41.56642 | 21.83721 | 4686 ft | 232 kts | 283° |
| 2026-05-08 17:26 | 41.57373 | 21.81788 | 4606 ft | 236 kts | 304° |
| 2026-05-08 17:26 | 41.58309 | 21.79980 | 4520 ft | 236 kts | 302° |
| 2026-05-08 17:27 | 41.59240 | 21.78167 | 4459 ft | 236 kts | 302° |
| 2026-05-08 17:27 | 41.60179 | 21.76370 | 4377 ft | 236 kts | 307° |
| 2026-05-08 17:27 | 41.61357 | 21.74858 | 4541 ft | 239 kts | 321° |
| 2026-05-08 17:27 | 41.62809 | 21.73772 | 4531 ft | 240 kts | 338° |
| 2026-05-08 17:28 | 41.64408 | 21.73118 | 4527 ft | 240 kts | 344° |
| 2026-05-08 17:28 | 41.66029 | 21.72573 | 4526 ft | 240 kts | 345° |
| 2026-05-08 17:28 | 41.67645 | 21.72025 | 4522 ft | 240 kts | 344° |
| 2026-05-08 17:28 | 41.69261 | 21.71468 | 4520 ft | 240 kts | 344° |
| 2026-05-08 17:29 | 41.70876 | 21.70910 | 4517 ft | 235 kts | 344° |
| 2026-05-08 17:29 | 41.72407 | 21.70382 | 4516 ft | 219 kts | 344° |
| 2026-05-08 17:29 | 41.73836 | 21.69888 | 4513 ft | 206 kts | 344° |
| 2026-05-08 17:29 | 41.75204 | 21.69415 | 4514 ft | 201 kts | 344° |
| 2026-05-08 17:30 | 41.76549 | 21.68949 | 4516 ft | 200 kts | 344° |
| 2026-05-08 17:30 | 41.77880 | 21.68489 | 4471 ft | 200 kts | 344° |
| 2026-05-08 17:30 | 41.79225 | 21.68023 | 4242 ft | 199 kts | 345° |
| 2026-05-08 17:30 | 41.80569 | 21.67558 | 3960 ft | 199 kts | 345° |
| 2026-05-08 17:31 | 41.81906 | 21.67095 | 3733 ft | 195 kts | 345° |
| 2026-05-08 17:31 | 41.83215 | 21.66641 | 3400 ft | 193 kts | 346° |
| 2026-05-08 17:31 | 41.84500 | 21.66196 | 3117 ft | 189 kts | 345° |
| 2026-05-08 17:31 | 41.85765 | 21.65757 | 2838 ft | 185 kts | 345° |
| 2026-05-08 17:32 | 41.87004 | 21.65327 | 2578 ft | 182 kts | 346° |
| 2026-05-08 17:32 | 41.88205 | 21.64910 | 2319 ft | 175 kts | 346° |
| 2026-05-08 17:32 | 41.89352 | 21.64511 | 2079 ft | 166 kts | 347° |
| 2026-05-08 17:32 | 41.90438 | 21.64134 | 1841 ft | 154 kts | 347° |
| 2026-05-08 17:33 | 41.91432 | 21.63788 | 1626 ft | 144 kts | 347° |
| 2026-05-08 17:33 | 41.92388 | 21.63456 | 1416 ft | 140 kts | 346° |
| 2026-05-08 17:33 | 41.93327 | 21.63130 | 1201 ft | 139 kts | 346° |
| 2026-05-08 17:33 | 41.94259 | 21.62803 | 965 ft | 138 kts | 347° |
| 2026-05-08 17:34 | 41.95168 | 21.62497 | 776 ft | 134 kts | 346° |
| 2026-05-08 17:34 | 41.95968 | 21.62212 | 767 ft | 99 kts | 345° |
| 2026-05-08 17:34 | 41.96396 | 21.62063 | 768 ft | 30 kts | 345° |
| 2026-05-08 17:34 | 41.96501 | 21.62128 | 769 ft | 19 kts | 75° |
| 2026-05-08 17:35 | 41.96528 | 21.62269 | 771 ft | 15 kts | 89° |
| 2026-05-08 17:35 | 41.96467 | 21.62304 | 785 ft | 11 kts | 162° |
| 2026-05-08 17:35 | 41.96386 | 21.62334 | 785 ft | 14 kts | 164° |
| 2026-05-08 17:35 | 41.96280 | 21.62372 | 784 ft | 17 kts | 166° |
| 2026-05-08 17:36 | 41.96168 | 21.62408 | 784 ft | 13 kts | 166° |
| 2026-05-08 17:36 | 41.96122 | 21.62439 | 783 ft | 6 kts | 92° |
| 2026-05-08 17:36 | 41.96123 | 21.62503 | 783 ft | 7 kts | 123° |
| 2026-05-08 17:36 | 41.96065 | 21.62529 | 783 ft | 11 kts | 166° |
| 2026-05-08 17:37 | 41.96030 | 21.62541 | 783 ft | 4 kts | 162° |
| 2026-05-08 17:37 | 41.96031 | 21.62578 | 782 ft | 4 kts | 63° |
| 2026-05-08 17:37 | 41.96034 | 21.62590 | 783 ft | 2 kts | 68° |
| 2026-05-08 17:37 | 41.96038 | 21.62601 | 783 ft | 0 kts | 64° |